createdAt,value
2018-07-10T00:00:08.302Z,21.46
2018-07-10T00:02:47.289Z,21.20
2018-07-10T00:06:45.266Z,20.93
2018-07-10T00:09:24.156Z,20.82
2018-07-10T00:11:52.380Z,20.87
2018-07-10T00:14:20.285Z,20.94
2018-07-10T00:16:48.189Z,20.93
2018-07-10T00:19:16.061Z,20.98
2018-07-10T00:21:44.029Z,21.04
2018-07-10T00:24:11.930Z,20.98
2018-07-10T00:26:39.798Z,20.99
2018-07-10T00:29:07.953Z,21.00
2018-07-10T00:31:35.842Z,20.92
2018-07-10T00:34:03.720Z,20.73
2018-07-10T00:36:31.723Z,20.66
2018-07-10T00:39:01.674Z,20.56
2018-07-10T00:41:33.060Z,20.65
2018-07-10T00:44:01.706Z,20.68
2018-07-10T00:46:30.804Z,20.69
2018-07-10T00:48:58.857Z,20.83
2018-07-10T00:51:27.563Z,20.65
2018-07-10T00:53:55.526Z,20.64
2018-07-10T00:56:23.498Z,20.73
2018-07-10T00:58:52.993Z,20.86
2018-07-10T01:01:21.942Z,20.95
2018-07-10T01:03:50.137Z,21.08
2018-07-10T01:06:18.298Z,21.14
2018-07-10T01:08:47.032Z,21.17
2018-07-10T01:11:16.061Z,21.17
2018-07-10T01:13:44.914Z,20.95
2018-07-10T01:16:13.674Z,20.86
2018-07-10T01:18:43.649Z,20.87
2018-07-10T01:21:16.498Z,20.91
2018-07-10T01:23:44.549Z,20.99
2018-07-10T01:26:13.160Z,20.98
2018-07-10T01:28:41.913Z,21.10
2018-07-10T01:31:10.187Z,21.06
2018-07-10T01:33:38.246Z,21.17
2018-07-10T01:36:07.074Z,21.01
2018-07-10T01:38:35.858Z,20.87
2018-07-10T01:41:04.327Z,20.84
2018-07-10T01:43:32.618Z,20.93
2018-07-10T01:46:00.749Z,21.01
2018-07-10T01:48:28.604Z,21.01
2018-07-10T01:50:56.471Z,21.12
2018-07-10T01:53:24.538Z,21.13
2018-07-10T01:55:52.502Z,21.22
2018-07-10T01:58:20.742Z,21.18
2018-07-10T02:00:48.838Z,21.24
2018-07-10T02:03:16.777Z,21.28
2018-07-10T02:05:44.645Z,21.17
2018-07-10T02:08:12.528Z,21.05
2018-07-10T02:10:40.471Z,20.98
2018-07-10T02:13:08.661Z,20.85
2018-07-10T02:15:36.662Z,21.00
2018-07-10T02:18:04.629Z,20.98
2018-07-10T02:21:07.437Z,20.95
2018-07-10T02:23:43.444Z,20.95
2018-07-10T02:26:17.745Z,20.95
2018-07-10T02:28:45.757Z,21.03
2018-07-10T02:31:13.750Z,21.10
2018-07-10T02:33:41.701Z,21.05
2018-07-10T02:36:09.710Z,21.01
2018-07-10T02:38:40.975Z,21.03
2018-07-10T02:41:10.844Z,21.14
2018-07-10T02:43:38.857Z,21.18
2018-07-10T02:46:07.176Z,21.18
2018-07-10T02:48:35.454Z,21.11
2018-07-10T02:51:05.683Z,21.02
2018-07-10T02:53:35.602Z,21.07
2018-07-10T02:56:03.968Z,20.86
2018-07-10T02:58:33.948Z,20.72
2018-07-10T03:01:02.833Z,20.79
2018-07-10T03:03:31.751Z,20.98
2018-07-10T03:05:59.755Z,20.95
2018-07-10T03:08:27.825Z,21.03
2018-07-10T03:10:55.843Z,21.05
2018-07-10T03:13:24.679Z,20.93
2018-07-10T03:15:53.747Z,21.01
2018-07-10T03:18:21.790Z,21.08
2018-07-10T03:20:49.829Z,21.22
2018-07-10T03:23:17.884Z,21.29
2018-07-10T03:25:45.972Z,21.21
2018-07-10T03:28:14.019Z,21.26
2018-07-10T03:30:42.046Z,21.21
2018-07-10T03:33:10.069Z,21.03
2018-07-10T03:35:38.058Z,21.12
2018-07-10T03:38:06.094Z,21.09
2018-07-10T03:40:34.137Z,21.03
2018-07-10T03:43:02.197Z,21.13
2018-07-10T03:45:30.178Z,21.25
2018-07-10T03:47:58.705Z,21.19
2018-07-10T03:50:27.429Z,21.27
2018-07-10T03:52:55.470Z,21.14
2018-07-10T03:55:24.343Z,21.16
2018-07-10T03:57:54.331Z,21.26
2018-07-10T04:00:22.352Z,21.29
2018-07-10T04:02:51.407Z,21.35
2018-07-10T04:05:20.662Z,21.17
2018-07-10T04:07:54.081Z,21.02
2018-07-10T04:10:26.861Z,21.01
2018-07-10T04:12:56.346Z,21.29
2018-07-10T04:15:24.329Z,21.41
2018-07-10T04:18:03.977Z,21.32
2018-07-10T04:20:41.961Z,21.57
2018-07-10T04:23:10.022Z,21.73
2018-07-10T04:25:47.880Z,21.66
2018-07-10T04:28:21.455Z,21.53
2018-07-10T04:31:32.770Z,21.71
2018-07-10T04:34:00.845Z,22.00
2018-07-10T04:36:28.959Z,22.27
2018-07-10T04:38:58.262Z,22.55
2018-07-10T04:41:29.682Z,22.55
2018-07-10T04:44:09.807Z,22.45
2018-07-10T04:46:41.448Z,22.75
2018-07-10T04:49:20.473Z,22.88
2018-07-10T04:51:54.583Z,22.79
2018-07-10T04:54:34.034Z,22.45
2018-07-10T04:57:08.452Z,22.49
2018-07-10T04:59:36.773Z,22.54
2018-07-10T05:02:05.441Z,22.57
2018-07-10T05:04:33.453Z,22.80
2018-07-10T05:07:06.884Z,22.82
2018-07-10T05:09:35.851Z,22.90
2018-07-10T05:12:04.210Z,22.94
2018-07-10T05:14:32.259Z,22.81
2018-07-10T05:17:00.586Z,22.61
2018-07-10T05:19:28.711Z,22.56
2018-07-10T05:21:56.706Z,22.67
2018-07-10T05:24:24.756Z,22.89
2018-07-10T05:26:52.759Z,23.06
2018-07-10T05:29:20.785Z,22.93
2018-07-10T05:31:49.134Z,22.83
2018-07-10T05:34:17.149Z,23.43
2018-07-10T05:36:45.209Z,23.43
2018-07-10T05:39:13.224Z,23.34
2018-07-10T05:41:45.160Z,23.38
2018-07-10T05:44:18.861Z,23.15
2018-07-10T05:46:47.281Z,22.86
2018-07-10T05:49:15.790Z,22.84
2018-07-10T05:51:47.363Z,22.77
2018-07-10T05:54:15.482Z,22.74
2018-07-10T05:56:43.539Z,22.90
2018-07-10T05:59:11.769Z,22.51
2018-07-10T06:01:40.934Z,22.05
2018-07-10T06:04:11.561Z,21.88
2018-07-10T06:06:39.946Z,22.26
2018-07-10T06:09:07.978Z,22.38
2018-07-10T06:11:36.414Z,22.36
2018-07-10T06:14:04.444Z,23.09
2018-07-10T06:16:33.254Z,23.36
2018-07-10T06:19:01.250Z,23.38
2018-07-10T06:21:41.878Z,22.94
2018-07-10T06:24:11.554Z,22.67
2018-07-10T06:26:41.070Z,22.74
2018-07-10T06:29:09.486Z,22.46
2018-07-10T06:31:51.040Z,22.47
2018-07-10T06:34:20.476Z,22.66
2018-07-10T06:36:57.313Z,22.66
2018-07-10T06:39:25.361Z,22.78
2018-07-10T06:41:58.893Z,22.86
2018-07-10T06:44:26.921Z,22.84
2018-07-10T06:46:58.457Z,23.00
2018-07-10T06:49:32.046Z,23.08
2018-07-10T06:52:11.752Z,23.93
2018-07-10T06:54:46.251Z,24.36
2018-07-10T06:57:14.488Z,24.02
2018-07-10T06:59:42.453Z,23.58
2018-07-10T07:02:10.886Z,23.59
2018-07-10T07:04:38.897Z,23.64
2018-07-10T07:07:07.239Z,23.80
2018-07-10T07:09:35.663Z,23.20
2018-07-10T07:12:03.707Z,23.22
2018-07-10T07:14:31.682Z,23.14
2018-07-10T07:16:59.681Z,23.46
2018-07-10T07:19:27.793Z,23.16
2018-07-10T07:21:55.810Z,22.92
2018-07-10T07:24:23.820Z,23.49
2018-07-10T07:26:51.830Z,24.09
2018-07-10T07:29:19.835Z,24.35
2018-07-10T07:31:48.149Z,24.15
2018-07-10T07:34:16.128Z,24.81
2018-07-10T07:36:44.033Z,25.43
2018-07-10T07:39:12.042Z,25.49
2018-07-10T07:41:40.161Z,25.62
2018-07-10T07:44:08.343Z,25.60
2018-07-10T07:46:36.294Z,26.00
2018-07-10T07:49:04.326Z,26.35
2018-07-10T07:51:32.295Z,25.43
2018-07-10T07:54:00.755Z,25.31
2018-07-10T07:56:28.784Z,25.46
2018-07-10T07:58:57.138Z,24.64
2018-07-10T08:01:25.474Z,24.76
2018-07-10T08:03:54.615Z,25.04
2018-07-10T08:06:22.696Z,25.06
2018-07-10T08:08:50.900Z,25.50
2018-07-10T08:11:19.184Z,26.98
2018-07-10T08:13:47.643Z,27.83
2018-07-10T08:16:16.286Z,27.97
2018-07-10T08:18:44.459Z,27.16
2018-07-10T08:21:12.651Z,28.02
2018-07-10T08:23:41.137Z,30.15
2018-07-10T08:26:09.358Z,29.19
2018-07-10T08:28:37.415Z,30.18
2018-07-10T08:31:05.550Z,30.54
2018-07-10T08:33:33.853Z,31.02
2018-07-10T08:36:02.008Z,29.40
2018-07-10T08:38:39.528Z,28.54
2018-07-10T08:41:12.755Z,27.97
2018-07-10T08:43:41.015Z,28.17
2018-07-10T08:46:09.205Z,26.91
2018-07-10T08:48:37.899Z,26.11
2018-07-10T08:51:06.158Z,27.26
2018-07-10T08:53:34.303Z,28.10
2018-07-10T08:56:02.496Z,29.09
2018-07-10T08:58:30.773Z,28.10
2018-07-10T09:00:58.964Z,29.29
2018-07-10T09:03:27.160Z,28.50
2018-07-10T09:05:55.338Z,28.48
2018-07-10T09:08:23.540Z,29.38
2018-07-10T09:10:52.075Z,28.31
2018-07-10T09:13:20.366Z,28.35
2018-07-10T09:15:48.705Z,28.84
2018-07-10T09:18:16.932Z,28.83
2018-07-10T09:20:49.514Z,27.66
2018-07-10T09:23:19.127Z,27.10
2018-07-10T09:25:48.514Z,28.78
2018-07-10T09:28:16.728Z,31.32
2018-07-10T09:30:44.951Z,29.09
2018-07-10T09:33:13.188Z,28.44
2018-07-10T09:35:41.286Z,28.99
2018-07-10T09:38:09.334Z,29.95
2018-07-10T09:40:37.623Z,28.58
2018-07-10T09:43:06.489Z,26.61
2018-07-10T09:45:36.494Z,26.36
2018-07-10T09:48:05.659Z,25.53
2018-07-10T09:50:33.865Z,25.12
2018-07-10T09:53:02.677Z,25.64
2018-07-10T09:55:31.041Z,25.82
2018-07-10T09:58:00.841Z,25.47
2018-07-10T10:00:34.468Z,25.70
2018-07-10T10:03:03.492Z,26.50
2018-07-10T10:05:43.288Z,27.61
2018-07-10T10:08:12.461Z,28.66
2018-07-10T10:10:41.060Z,27.14
2018-07-10T10:13:09.496Z,27.30
2018-07-10T10:15:37.980Z,28.82
2018-07-10T10:18:07.908Z,29.42
2018-07-10T10:20:38.431Z,29.60
2018-07-10T10:23:06.659Z,30.19
2018-07-10T10:25:37.315Z,29.94
2018-07-10T10:28:07.009Z,28.60
2018-07-10T10:30:36.297Z,28.51
2018-07-10T10:33:05.094Z,30.07
2018-07-10T10:35:33.172Z,28.10
2018-07-10T10:38:02.397Z,28.80
2018-07-10T10:40:33.142Z,29.68
2018-07-10T10:43:04.342Z,30.87
2018-07-10T10:45:35.301Z,31.67
2018-07-10T10:48:03.797Z,31.18
2018-07-10T10:50:31.886Z,31.38
2018-07-10T10:53:00.176Z,30.31
2018-07-10T10:55:28.278Z,27.40
2018-07-10T10:57:56.445Z,28.48
2018-07-10T11:00:25.277Z,27.82
2018-07-10T11:02:53.450Z,27.97
2018-07-10T11:05:21.709Z,28.22
2018-07-10T11:07:49.872Z,27.24
2018-07-10T11:10:18.905Z,26.95
2018-07-10T11:12:47.413Z,27.21
2018-07-10T11:15:15.601Z,26.59
2018-07-10T11:17:51.123Z,26.65
2018-07-10T11:20:58.371Z,27.14
2018-07-10T11:23:56.405Z,28.07
2018-07-10T11:26:34.940Z,29.10
2018-07-10T11:29:04.580Z,29.67
2018-07-10T11:31:33.401Z,30.96
2018-07-10T11:34:01.669Z,31.51
2018-07-10T11:36:29.805Z,31.35
2018-07-10T11:39:05.784Z,30.70
2018-07-10T11:44:10.411Z,31.66
2018-07-10T11:46:39.110Z,31.17
2018-07-10T11:49:07.364Z,31.51
2018-07-10T11:51:35.539Z,30.38
2018-07-10T11:54:04.026Z,29.33
2018-07-10T11:56:32.252Z,29.29
2018-07-10T11:59:00.750Z,28.87
2018-07-10T12:01:29.782Z,28.51
2018-07-10T12:03:58.485Z,28.49
2018-07-10T12:06:26.750Z,28.01
2018-07-10T12:08:56.965Z,27.28
2018-07-10T12:11:27.251Z,25.46
2018-07-10T12:13:55.397Z,24.37
2018-07-10T12:16:24.311Z,24.09
2018-07-10T12:18:52.535Z,23.84
2018-07-10T12:21:21.027Z,24.09
2018-07-10T12:23:49.389Z,24.10
2018-07-10T12:26:17.516Z,24.44
2018-07-10T12:28:46.264Z,24.98
2018-07-10T12:31:14.815Z,25.65
2018-07-10T12:33:42.875Z,25.61
2018-07-10T12:36:10.831Z,25.29
2018-07-10T12:38:38.866Z,25.42
2018-07-10T12:41:06.947Z,25.76
2018-07-10T12:43:35.008Z,25.69
2018-07-10T12:46:03.034Z,26.32
2018-07-10T12:48:31.037Z,26.96
2018-07-10T12:50:59.983Z,27.54
2018-07-10T12:53:28.055Z,27.27
2018-07-10T12:55:58.668Z,27.21
2018-07-10T12:58:26.691Z,27.20
2018-07-10T13:00:55.396Z,26.84
2018-07-10T13:03:23.621Z,26.93
2018-07-10T13:05:55.914Z,27.48
2018-07-10T13:08:23.942Z,27.26
2018-07-10T13:10:51.955Z,27.49
2018-07-10T13:13:20.030Z,27.48
2018-07-10T13:15:48.002Z,27.18
2018-07-10T13:18:19.355Z,27.10
2018-07-10T13:20:47.378Z,26.82
2018-07-10T13:23:15.397Z,26.46
2018-07-10T13:25:43.433Z,26.85
2018-07-10T13:28:11.366Z,27.31
2018-07-10T13:30:39.355Z,27.75
2018-07-10T13:33:07.364Z,27.78
2018-07-10T13:35:35.748Z,28.78
2018-07-10T13:38:04.443Z,28.72
2018-07-10T13:40:33.876Z,28.69
2018-07-10T13:43:01.934Z,27.57
2018-07-10T13:45:30.898Z,27.15
2018-07-10T13:47:58.934Z,26.66
2018-07-10T13:50:29.022Z,26.86
2018-07-10T13:52:58.121Z,27.35
2018-07-10T13:55:26.645Z,28.15
2018-07-10T13:58:05.071Z,28.52
2018-07-10T14:00:35.962Z,27.51
2018-07-10T14:03:04.278Z,27.52
2018-07-10T14:05:32.295Z,27.83
2018-07-10T14:08:00.346Z,28.56
2018-07-10T14:10:28.357Z,28.35
2018-07-10T14:12:57.370Z,29.11
2018-07-10T14:15:26.241Z,28.94
2018-07-10T14:17:54.433Z,29.10
2018-07-10T14:20:22.730Z,28.59
2018-07-10T14:22:50.759Z,29.29
2018-07-10T14:25:19.094Z,28.71
2018-07-10T14:27:47.054Z,28.13
2018-07-10T14:30:15.047Z,28.91
2018-07-10T14:32:43.367Z,29.81
2018-07-10T14:35:11.473Z,29.92
2018-07-10T14:37:39.751Z,29.81
2018-07-10T14:40:07.830Z,30.01
2018-07-10T14:42:37.281Z,30.16
2018-07-10T14:45:05.998Z,29.78
2018-07-10T14:47:37.219Z,29.36
2018-07-10T14:50:05.259Z,27.80
2018-07-10T14:52:33.261Z,28.64
2018-07-10T14:55:01.313Z,29.45
2018-07-10T14:57:29.435Z,28.87
2018-07-10T14:59:57.481Z,28.49
2018-07-10T15:02:25.809Z,28.10
2018-07-10T15:04:53.813Z,28.18
2018-07-10T15:07:21.706Z,28.55
2018-07-10T15:09:49.609Z,28.60
2018-07-10T15:12:17.521Z,28.67
2018-07-10T15:14:45.639Z,28.80
2018-07-10T15:17:19.274Z,28.85
2018-07-10T15:19:47.855Z,29.30
2018-07-10T15:22:15.754Z,29.75
2018-07-10T15:24:44.698Z,29.61
2018-07-10T15:27:12.618Z,29.90
2018-07-10T15:29:40.529Z,30.70
2018-07-10T15:32:08.499Z,30.54
2018-07-10T15:34:37.276Z,29.98
2018-07-10T15:37:05.253Z,29.29
2018-07-10T15:39:33.220Z,29.13
2018-07-10T15:42:01.187Z,28.92
2018-07-10T15:44:29.105Z,28.78
2018-07-10T15:46:56.982Z,29.02
2018-07-10T15:49:24.901Z,29.14
2018-07-10T15:51:52.830Z,29.25
2018-07-10T15:54:21.097Z,29.24
2018-07-10T15:56:49.023Z,29.03
2018-07-10T15:59:16.943Z,29.45
2018-07-10T16:01:45.011Z,30.27
2018-07-10T16:04:13.066Z,30.00
2018-07-10T16:06:41.603Z,30.39
2018-07-10T16:09:16.805Z,29.89
2018-07-10T16:11:45.279Z,29.12
2018-07-10T16:14:13.726Z,28.70
2018-07-10T16:16:42.093Z,29.04
2018-07-10T16:19:22.194Z,29.46
2018-07-10T16:22:06.086Z,29.00
2018-07-10T16:24:38.581Z,28.84
2018-07-10T16:27:06.654Z,29.11
2018-07-10T16:29:34.686Z,29.28
2018-07-10T16:32:06.061Z,29.16
2018-07-10T16:34:34.105Z,29.23
2018-07-10T16:37:03.116Z,28.97
2018-07-10T16:39:31.361Z,28.86
2018-07-10T16:42:05.001Z,28.62
2018-07-10T16:44:33.065Z,28.19
2018-07-10T16:47:07.068Z,27.55
2018-07-10T16:49:46.702Z,27.43
2018-07-10T16:52:21.806Z,27.33
2018-07-10T16:54:49.954Z,27.43
2018-07-10T16:57:17.990Z,27.53
2018-07-10T16:59:46.134Z,27.26
2018-07-10T17:02:14.218Z,27.24
2018-07-10T17:04:42.517Z,27.22
2018-07-10T17:07:10.682Z,27.02
2018-07-10T17:09:38.686Z,26.71
2018-07-10T17:12:06.661Z,26.59
2018-07-10T17:14:34.597Z,26.32
2018-07-10T17:17:02.674Z,25.82
2018-07-10T17:19:30.677Z,25.76
2018-07-10T17:21:58.582Z,25.56
2018-07-10T17:24:26.565Z,25.42
2018-07-10T17:26:54.673Z,25.35
2018-07-10T17:29:22.662Z,25.12
2018-07-10T17:31:50.707Z,25.04
2018-07-10T17:34:18.723Z,25.02
2018-07-10T17:36:46.754Z,24.93
2018-07-10T17:39:14.809Z,24.77
2018-07-10T17:41:42.840Z,24.53
2018-07-10T17:44:10.882Z,24.17
2018-07-10T17:46:39.162Z,24.19
2018-07-10T17:49:07.138Z,24.11
2018-07-10T17:51:35.114Z,24.06
2018-07-10T17:54:03.662Z,24.00
2018-07-10T17:56:31.746Z,24.05
2018-07-10T17:59:00.380Z,23.98
2018-07-10T18:01:28.467Z,23.90
2018-07-10T18:03:56.641Z,23.73
2018-07-10T18:06:24.586Z,23.59
2018-07-10T18:08:52.557Z,23.41
2018-07-10T18:11:20.564Z,23.35
2018-07-10T18:13:48.577Z,23.32
2018-07-10T18:16:16.522Z,23.18
2018-07-10T18:18:44.495Z,23.12
2018-07-10T18:21:12.502Z,23.10
2018-07-10T18:23:40.484Z,23.21
2018-07-10T18:26:08.371Z,23.30
2018-07-10T18:28:36.394Z,23.30
2018-07-10T18:31:04.450Z,23.13
2018-07-10T18:33:32.402Z,23.24
2018-07-10T18:36:00.942Z,23.22
2018-07-10T18:38:28.960Z,23.15
2018-07-10T18:40:57.037Z,23.16
2018-07-10T18:43:25.096Z,23.27
2018-07-10T18:45:53.058Z,23.18
2018-07-10T18:48:25.923Z,23.17
2018-07-10T18:50:54.181Z,23.12
2018-07-10T18:53:22.162Z,23.16
2018-07-10T18:55:50.669Z,23.02
2018-07-10T18:58:24.925Z,22.99
2018-07-10T19:01:03.071Z,22.91
2018-07-10T19:03:33.669Z,22.84
2018-07-10T19:06:06.477Z,22.50
2018-07-10T19:08:34.477Z,22.71
2018-07-10T19:11:02.918Z,22.56
2018-07-10T19:13:30.989Z,22.59
2018-07-10T19:15:59.287Z,22.84
2018-07-10T19:18:27.373Z,22.79
2018-07-10T19:21:05.576Z,22.79
2018-07-10T19:23:45.365Z,22.90
2018-07-10T19:26:14.048Z,23.09
2018-07-10T19:28:42.714Z,23.26
2018-07-10T19:31:17.398Z,23.09
2018-07-10T19:33:51.960Z,23.09
2018-07-10T19:36:21.189Z,22.94
2018-07-10T19:38:49.284Z,23.05
2018-07-10T19:41:19.666Z,22.94
2018-07-10T19:43:48.537Z,22.88
2018-07-10T19:46:16.677Z,23.01
2018-07-10T19:48:48.125Z,22.71
2018-07-10T19:51:16.681Z,22.80
2018-07-10T19:53:52.390Z,22.74
2018-07-10T19:56:21.185Z,22.68
2018-07-10T19:58:49.223Z,22.67
2018-07-10T20:01:29.475Z,22.52
2018-07-10T20:04:04.998Z,22.44
2018-07-10T20:06:39.745Z,22.38
2018-07-10T20:09:11.195Z,22.44
2018-07-10T20:11:45.456Z,22.30
2018-07-10T20:14:17.171Z,22.13
2018-07-10T20:16:51.700Z,22.11
2018-07-10T20:19:28.686Z,22.20
2018-07-10T20:24:09.945Z,22.08
2018-07-10T20:28:51.210Z,22.02
2018-07-10T20:31:28.091Z,21.83
2018-07-10T20:34:21.074Z,21.77
2018-07-10T20:36:53.370Z,21.85
2018-07-10T20:39:26.349Z,21.71
2018-07-10T20:41:54.413Z,21.70
2018-07-10T20:44:22.441Z,21.70
2018-07-10T20:47:00.578Z,21.84
2018-07-10T20:50:05.462Z,21.64
2018-07-10T20:53:00.134Z,21.79
2018-07-10T20:55:40.766Z,21.65
2018-07-10T20:58:11.823Z,21.76
2018-07-10T21:00:50.444Z,21.70
2018-07-10T21:04:25.913Z,21.62
2018-07-10T21:06:57.182Z,21.80
2018-07-10T21:09:35.167Z,21.73
2018-07-10T21:12:11.593Z,21.60
2018-07-10T21:15:17.193Z,21.73
2018-07-10T21:17:57.705Z,21.77
2018-07-10T21:20:35.614Z,21.78
2018-07-10T21:23:14.014Z,21.83
2018-07-10T21:25:51.514Z,21.79
2018-07-10T21:28:31.217Z,21.74
2018-07-10T21:31:08.190Z,21.60
2018-07-10T21:33:43.537Z,21.23
2018-07-10T21:36:17.985Z,21.06
2018-07-10T21:39:04.052Z,21.11
2018-07-10T21:41:53.507Z,21.05
2018-07-10T21:44:39.522Z,21.12
2018-07-10T21:47:46.106Z,21.16
2018-07-10T21:50:23.522Z,21.04
2018-07-10T21:52:51.565Z,21.10
2018-07-10T21:55:20.216Z,21.17
2018-07-10T21:57:48.506Z,21.25
2018-07-10T22:00:17.103Z,21.25
2018-07-10T22:02:45.171Z,21.30
2018-07-10T22:05:13.176Z,21.32
2018-07-10T22:07:41.339Z,21.31
2018-07-10T22:10:09.362Z,21.31
2018-07-10T22:12:42.627Z,21.35
2018-07-10T22:15:11.470Z,21.23
2018-07-10T22:17:39.834Z,21.05
2018-07-10T22:20:08.607Z,20.95
2018-07-10T22:22:36.692Z,20.91
2018-07-10T22:25:06.522Z,20.79
2018-07-10T22:27:36.881Z,20.67
2018-07-10T22:30:10.488Z,20.74
2018-07-10T22:32:44.947Z,20.70
2018-07-10T22:35:14.532Z,20.78
2018-07-10T22:37:42.638Z,20.92
2018-07-10T22:40:11.088Z,20.93
2018-07-10T22:42:39.089Z,21.00
2018-07-10T22:45:07.130Z,20.92
2018-07-10T22:47:38.305Z,21.02
2018-07-10T22:50:08.499Z,20.93
2018-07-10T22:52:42.737Z,20.80
2018-07-10T22:55:11.402Z,20.60
2018-07-10T22:57:39.422Z,20.52
2018-07-10T23:00:07.430Z,20.48
2018-07-10T23:02:35.166Z,20.26
2018-07-10T23:05:03.030Z,20.38
2018-07-10T23:07:30.991Z,20.43
2018-07-10T23:09:58.841Z,20.57
2018-07-10T23:12:26.707Z,20.63
2018-07-10T23:14:54.570Z,20.65
2018-07-10T23:17:22.371Z,20.67
2018-07-10T23:19:50.275Z,20.72
2018-07-10T23:22:18.829Z,20.36
2018-07-10T23:24:46.715Z,20.41
2018-07-10T23:27:14.583Z,20.47
2018-07-10T23:29:42.466Z,20.49
2018-07-10T23:32:10.343Z,20.40
2018-07-10T23:34:38.220Z,20.50
2018-07-10T23:37:12.154Z,20.40
2018-07-10T23:39:46.683Z,20.28
2018-07-10T23:42:30.075Z,20.43
2018-07-10T23:45:01.667Z,20.56
2018-07-10T23:47:32.137Z,20.77
2018-07-10T23:50:07.486Z,20.83
2018-07-10T23:53:53.686Z,20.79
2018-07-10T23:56:21.971Z,20.54
2018-07-10T23:58:50.769Z,20.66
